createdAt,value
2022-11-04T00:02:25.794Z,17.30
2022-11-04T00:04:56.211Z,17.30
2022-11-04T00:07:42.080Z,17.30
2022-11-04T00:10:10.330Z,17.30
2022-11-04T00:12:38.628Z,17.30
2022-11-04T00:15:25.493Z,17.30
2022-11-04T00:17:54.131Z,17.30
2022-11-04T00:20:38.136Z,17.30
2022-11-04T00:23:24.638Z,17.20
2022-11-04T00:26:10.593Z,17.30
2022-11-04T00:28:44.485Z,17.20
2022-11-04T00:31:30.569Z,17.20
2022-11-04T00:33:59.681Z,17.20
2022-11-04T00:36:28.634Z,17.20
2022-11-04T00:38:56.342Z,17.10
2022-11-04T00:41:28.688Z,17.20
2022-11-04T00:44:05.304Z,17.20
2022-11-04T00:46:35.365Z,17.20
2022-11-04T00:49:02.871Z,17.20
2022-11-04T00:51:31.007Z,17.20
2022-11-04T00:53:58.619Z,17.20
2022-11-04T00:56:26.650Z,17.30
2022-11-04T00:58:54.459Z,17.20
2022-11-04T01:01:22.927Z,17.30
2022-11-04T01:03:52.960Z,17.30
2022-11-04T01:06:22.594Z,17.30
2022-11-04T01:08:52.595Z,17.30
2022-11-04T01:11:20.322Z,17.30
2022-11-04T01:13:53.278Z,17.30
2022-11-04T01:16:21.156Z,17.30
2022-11-04T01:18:49.426Z,17.40
2022-11-04T01:21:17.764Z,17.40
2022-11-04T01:23:45.974Z,17.40
2022-11-04T01:26:16.704Z,17.40
2022-11-04T01:28:45.883Z,17.40
2022-11-04T01:31:16.458Z,17.40
2022-11-04T01:33:44.666Z,17.40
2022-11-04T01:36:15.671Z,17.40
2022-11-04T01:38:44.507Z,17.40
2022-11-04T01:41:27.970Z,17.40
2022-11-04T01:44:01.957Z,17.40
2022-11-04T01:46:33.672Z,17.40
2022-11-04T01:49:05.496Z,17.40
2022-11-04T01:51:37.024Z,17.40
2022-11-04T01:54:07.012Z,17.40
2022-11-04T01:56:35.193Z,17.50
2022-11-04T01:59:06.535Z,17.40
2022-11-04T02:01:35.212Z,17.40
2022-11-04T02:04:20.956Z,17.40
2022-11-04T02:06:50.278Z,17.40
2022-11-04T02:09:19.153Z,17.50
2022-11-04T02:12:05.342Z,17.40
2022-11-04T02:14:34.553Z,17.40
2022-11-04T02:17:21.223Z,17.40
2022-11-04T02:20:19.902Z,17.40
2022-11-04T02:23:08.558Z,17.40
2022-11-04T02:26:10.091Z,17.40
2022-11-04T02:29:08.810Z,17.40
2022-11-04T02:31:44.129Z,17.40
2022-11-04T02:34:36.990Z,17.40
2022-11-04T02:37:18.309Z,17.40
2022-11-04T02:39:58.806Z,17.40
2022-11-04T02:42:33.531Z,17.40
2022-11-04T02:45:12.438Z,17.40
2022-11-04T02:47:44.086Z,17.40
2022-11-04T02:50:33.567Z,17.40
2022-11-04T02:53:17.429Z,17.40
2022-11-04T02:55:48.994Z,17.40
2022-11-04T02:58:19.982Z,17.40
2022-11-04T03:00:51.251Z,17.40
2022-11-04T03:03:22.739Z,17.40
2022-11-04T03:05:53.575Z,17.40
2022-11-04T03:08:31.333Z,17.40
2022-11-04T03:11:05.532Z,17.40
2022-11-04T03:13:36.825Z,17.50
2022-11-04T03:16:09.413Z,17.50
2022-11-04T03:18:41.207Z,17.50
2022-11-04T03:21:11.775Z,17.50
2022-11-04T03:23:40.887Z,17.50
2022-11-04T03:26:15.456Z,17.50
2022-11-04T03:28:46.971Z,17.50
2022-11-04T03:31:24.455Z,17.50
2022-11-04T03:33:54.425Z,17.50
2022-11-04T03:36:23.652Z,17.50
2022-11-04T03:38:53.367Z,17.50
2022-11-04T03:41:33.540Z,17.50
2022-11-04T03:44:01.553Z,17.50
2022-11-04T03:46:29.495Z,17.50
2022-11-04T03:48:59.747Z,17.50
2022-11-04T03:51:27.580Z,17.50
2022-11-04T03:53:57.640Z,17.50
2022-11-04T03:56:37.788Z,17.60
2022-11-04T03:59:09.627Z,17.50
2022-11-04T04:01:53.078Z,17.50
2022-11-04T04:04:33.143Z,17.50
2022-11-04T04:07:07.390Z,17.50
2022-11-04T04:09:41.426Z,17.50
2022-11-04T04:12:21.883Z,17.50
2022-11-04T04:14:52.892Z,17.50
2022-11-04T04:17:39.723Z,17.50
2022-11-04T04:20:20.186Z,17.50
2022-11-04T04:23:00.842Z,17.50
2022-11-04T04:25:50.136Z,17.60
2022-11-04T04:28:19.869Z,17.50
2022-11-04T04:30:48.096Z,17.60
2022-11-04T04:33:21.395Z,17.60
2022-11-04T04:35:55.517Z,17.60
2022-11-04T04:38:44.404Z,17.60
2022-11-04T04:41:47.650Z,17.60
2022-11-04T04:44:47.239Z,17.60
2022-11-04T04:47:32.307Z,17.60
2022-11-04T04:50:01.562Z,17.60
2022-11-04T04:52:35.679Z,17.60
2022-11-04T04:55:05.669Z,17.60
2022-11-04T04:57:33.783Z,17.60
2022-11-04T05:00:01.915Z,17.60
2022-11-04T05:02:29.549Z,17.60
2022-11-04T05:04:59.619Z,17.60
2022-11-04T05:07:28.582Z,17.60
2022-11-04T05:09:56.318Z,17.60
2022-11-04T05:12:25.420Z,17.60
2022-11-04T05:14:56.045Z,17.60
2022-11-04T05:17:24.873Z,17.60
2022-11-04T05:19:52.729Z,17.60
2022-11-04T05:22:20.757Z,17.60
2022-11-04T05:24:48.985Z,17.60
2022-11-04T05:27:17.449Z,17.60
2022-11-04T05:29:47.682Z,17.60
2022-11-04T05:32:15.740Z,17.60
2022-11-04T05:34:43.643Z,17.60
2022-11-04T05:37:12.708Z,17.60
2022-11-04T05:39:41.757Z,17.60
2022-11-04T05:42:09.661Z,17.60
2022-11-04T05:44:37.458Z,17.60
2022-11-04T05:47:05.590Z,17.60
2022-11-04T05:49:33.845Z,17.60
2022-11-04T05:52:02.496Z,17.60
2022-11-04T05:54:30.722Z,17.60
2022-11-04T05:56:59.375Z,17.60
2022-11-04T05:59:27.730Z,17.60
2022-11-04T06:01:55.621Z,17.60
2022-11-04T06:04:23.745Z,17.60
2022-11-04T06:06:51.454Z,17.60
2022-11-04T06:09:19.482Z,17.60
2022-11-04T06:11:47.460Z,17.60
2022-11-04T06:14:18.761Z,17.60
2022-11-04T06:16:45.201Z,17.60
2022-11-04T06:19:16.683Z,17.60
2022-11-04T06:21:45.168Z,17.60
2022-11-04T06:24:14.808Z,17.60
2022-11-04T06:26:42.522Z,17.60
2022-11-04T06:29:17.038Z,17.60
2022-11-04T06:31:45.155Z,17.60
2022-11-04T06:34:13.708Z,17.50
2022-11-04T06:36:42.574Z,17.50
2022-11-04T06:39:12.800Z,17.50
2022-11-04T06:41:42.927Z,17.50
2022-11-04T06:44:10.399Z,17.50
2022-11-04T06:46:40.412Z,17.50
2022-11-04T06:49:14.629Z,17.50
2022-11-04T06:51:42.459Z,17.50
2022-11-04T06:54:10.358Z,17.40
2022-11-04T06:56:38.693Z,17.40
2022-11-04T06:59:06.715Z,17.40
2022-11-04T07:01:36.829Z,17.30
2022-11-04T07:04:07.848Z,17.40
2022-11-04T07:06:38.388Z,17.20
2022-11-04T07:09:05.116Z,17.20
2022-11-04T07:11:33.912Z,17.10
2022-11-04T07:14:03.189Z,16.80
2022-11-04T07:16:31.422Z,16.40
2022-11-04T07:18:59.021Z,16.20
2022-11-04T07:21:26.962Z,15.90
2022-11-04T07:23:57.976Z,15.80
2022-11-04T07:26:25.689Z,15.70
2022-11-04T07:28:53.321Z,15.60
2022-11-04T07:31:25.393Z,15.50
2022-11-04T07:33:54.079Z,15.40
2022-11-04T07:36:21.559Z,15.30
2022-11-04T07:38:49.591Z,15.20
2022-11-04T07:41:21.642Z,15.20
2022-11-04T07:43:53.000Z,15.10
2022-11-04T07:46:20.919Z,15.00
2022-11-04T07:48:48.775Z,14.90
2022-11-04T07:51:18.788Z,14.90
2022-11-04T07:53:46.926Z,15.00
2022-11-04T07:56:14.590Z,15.10
2022-11-04T07:58:45.495Z,15.20
2022-11-04T08:01:16.731Z,15.30
2022-11-04T08:03:44.286Z,15.30
2022-11-04T08:06:14.521Z,15.50
2022-11-04T08:08:43.786Z,15.60
2022-11-04T08:11:17.683Z,15.70
2022-11-04T08:13:45.182Z,15.80
2022-11-04T08:16:18.713Z,15.90
2022-11-04T08:18:47.563Z,15.90
2022-11-04T08:21:15.768Z,16.00
2022-11-04T08:23:44.827Z,16.10
2022-11-04T08:26:16.089Z,16.20
2022-11-04T08:28:46.490Z,16.20
2022-11-04T08:31:18.276Z,16.20
2022-11-04T08:33:46.904Z,16.30
2022-11-04T08:36:18.549Z,16.40
2022-11-04T08:38:46.814Z,16.40
2022-11-04T08:41:16.574Z,16.40
2022-11-04T08:43:44.893Z,16.40
2022-11-04T08:46:14.138Z,16.40
2022-11-04T08:48:42.869Z,16.20
2022-11-04T08:51:20.081Z,15.80
2022-11-04T08:53:47.814Z,15.50
2022-11-04T08:56:24.509Z,15.40
2022-11-04T08:58:52.531Z,15.20
2022-11-04T09:01:21.993Z,14.90
2022-11-04T09:03:52.587Z,14.80
2022-11-04T09:06:26.642Z,14.80
2022-11-04T09:08:59.185Z,14.70
2022-11-04T09:11:27.357Z,14.70
2022-11-04T09:13:54.815Z,14.80
2022-11-04T09:16:22.617Z,14.80
2022-11-04T09:18:50.162Z,14.80
2022-11-04T09:21:20.571Z,14.80
2022-11-04T09:23:48.371Z,14.70
2022-11-04T09:26:17.438Z,14.80
2022-11-04T09:28:45.395Z,15.00
2022-11-04T09:31:16.652Z,15.00
2022-11-04T09:33:44.991Z,15.10
2022-11-04T09:36:13.828Z,15.00
2022-11-04T09:38:48.922Z,15.10
2022-11-04T09:41:34.836Z,15.10
2022-11-04T09:44:12.509Z,15.20
2022-11-04T09:46:40.854Z,15.00
2022-11-04T09:49:13.086Z,15.00
2022-11-04T09:51:57.741Z,15.10
2022-11-04T09:54:23.873Z,15.30
2022-11-04T09:56:54.335Z,15.40
2022-11-04T09:59:28.187Z,15.40
2022-11-04T10:02:05.132Z,15.50
2022-11-04T10:04:51.511Z,15.70
2022-11-04T10:07:26.010Z,15.80
2022-11-04T10:10:15.230Z,15.70
2022-11-04T10:13:15.626Z,15.80
2022-11-04T10:16:03.297Z,15.90
2022-11-04T10:18:57.503Z,15.80
2022-11-04T10:21:31.779Z,15.60
2022-11-04T10:24:15.241Z,15.50
2022-11-04T10:26:50.431Z,15.50
2022-11-04T10:29:29.314Z,15.50
2022-11-04T10:32:03.673Z,15.60
2022-11-04T10:34:38.010Z,15.70
2022-11-04T10:37:09.538Z,15.80
2022-11-04T10:39:43.926Z,15.90
2022-11-04T10:42:18.057Z,15.90
2022-11-04T10:44:46.968Z,16.00
2022-11-04T10:47:44.171Z,16.10
2022-11-04T10:50:29.275Z,16.20
2022-11-04T10:52:58.171Z,16.00
2022-11-04T10:55:32.436Z,15.80
2022-11-04T10:58:04.164Z,15.80
2022-11-04T11:00:38.235Z,15.70
2022-11-04T11:03:34.500Z,15.70
2022-11-04T11:06:24.081Z,15.70
2022-11-04T11:08:57.988Z,15.80
2022-11-04T11:11:45.568Z,15.90
2022-11-04T11:14:23.697Z,15.90
2022-11-04T11:16:51.659Z,15.80
2022-11-04T11:19:22.744Z,15.90
2022-11-04T11:21:53.752Z,15.90
2022-11-04T11:24:27.037Z,15.90
2022-11-04T11:26:58.011Z,16.00
2022-11-04T11:29:32.021Z,16.20
2022-11-04T11:32:01.111Z,16.40
2022-11-04T11:34:32.352Z,16.50
2022-11-04T11:37:03.395Z,16.60
2022-11-04T11:39:36.088Z,16.70
2022-11-04T11:42:10.103Z,16.80
2022-11-04T11:44:43.345Z,16.90
2022-11-04T11:47:29.999Z,17.00
2022-11-04T11:50:19.610Z,17.10
2022-11-04T11:52:49.214Z,17.20
2022-11-04T11:55:23.418Z,17.30
2022-11-04T12:00:52.032Z,17.50
2022-11-04T12:03:25.126Z,17.70
2022-11-04T12:06:23.100Z,17.90
2022-11-04T12:09:16.184Z,18.00
2022-11-04T12:11:36.085Z,18.00
2022-11-04T12:14:13.498Z,18.20
2022-11-04T12:16:45.203Z,18.50
2022-11-04T12:19:45.381Z,18.60
2022-11-04T12:22:22.851Z,18.70
2022-11-04T12:24:57.483Z,18.70
2022-11-04T12:27:40.029Z,18.90
2022-11-04T12:30:14.741Z,19.00
2022-11-04T12:33:04.234Z,18.80
2022-11-04T12:36:01.593Z,18.50
2022-11-04T12:38:38.781Z,18.70
2022-11-04T12:41:52.350Z,19.00
2022-11-04T12:44:13.402Z,19.30
2022-11-04T12:46:53.782Z,19.60
2022-11-04T12:49:46.075Z,20.00
2022-11-04T12:52:35.586Z,20.30
2022-11-04T12:55:44.025Z,20.40
2022-11-04T12:58:30.471Z,20.20
2022-11-04T13:01:05.282Z,19.90
2022-11-04T13:03:37.756Z,19.80
2022-11-04T13:06:17.867Z,19.90
2022-11-04T13:08:54.093Z,20.10
2022-11-04T13:11:25.344Z,20.30
2022-11-04T13:14:07.473Z,20.20
2022-11-04T13:16:40.297Z,20.20
2022-11-04T13:19:23.909Z,20.10
2022-11-04T13:21:52.130Z,20.00
2022-11-04T13:24:32.060Z,20.20
2022-11-04T13:27:03.367Z,20.50
2022-11-04T13:29:34.141Z,20.70
2022-11-04T13:32:22.854Z,20.70
2022-11-04T13:35:00.438Z,20.90
2022-11-04T13:37:34.960Z,21.00
2022-11-04T13:40:22.010Z,21.20
2022-11-04T13:42:58.074Z,21.40
2022-11-04T13:45:29.695Z,22.00
2022-11-04T13:47:59.028Z,22.80
2022-11-04T13:50:39.080Z,23.30
2022-11-04T13:53:12.547Z,24.00
2022-11-04T13:55:49.471Z,24.90
2022-11-04T13:58:24.055Z,25.90
2022-11-04T14:01:13.920Z,26.70
2022-11-04T14:03:56.786Z,27.10
2022-11-04T14:06:53.664Z,27.80
2022-11-04T14:09:39.898Z,28.60
2022-11-04T14:12:20.318Z,28.90
2022-11-04T14:14:52.018Z,29.30
2022-11-04T14:17:38.704Z,29.20
2022-11-04T14:20:13.141Z,29.70
2022-11-04T14:22:56.646Z,30.50
2022-11-04T14:25:37.171Z,30.80
2022-11-04T14:28:12.065Z,30.70
2022-11-04T14:30:41.374Z,30.90
2022-11-04T14:33:23.518Z,30.40
2022-11-04T14:35:57.633Z,30.60
2022-11-04T14:38:29.148Z,30.80
2022-11-04T14:41:27.968Z,30.90
2022-11-04T14:43:58.676Z,31.20
2022-11-04T14:46:29.178Z,31.00
2022-11-04T14:49:02.068Z,31.30
2022-11-04T14:51:36.123Z,31.50
2022-11-04T14:54:05.931Z,31.70
2022-11-04T14:56:34.231Z,31.80
2022-11-04T14:59:07.412Z,32.20
2022-11-04T15:01:39.070Z,32.90
2022-11-04T15:04:12.739Z,33.30
2022-11-04T15:06:54.355Z,33.40
2022-11-04T15:09:25.053Z,33.80
2022-11-04T15:12:27.270Z,34.10
2022-11-04T15:14:56.810Z,33.80
2022-11-04T15:17:28.536Z,33.60
2022-11-04T15:20:02.312Z,33.70
2022-11-04T15:22:30.649Z,33.60
2022-11-04T15:25:02.359Z,33.30
2022-11-04T15:27:30.601Z,32.90
2022-11-04T15:30:00.937Z,32.40
2022-11-04T15:32:29.106Z,31.90
2022-11-04T15:34:58.012Z,31.40
2022-11-04T15:37:26.706Z,31.10
2022-11-04T15:39:59.198Z,30.70
2022-11-04T15:42:40.177Z,30.30
2022-11-04T15:45:39.024Z,29.50
2022-11-04T15:48:25.214Z,28.30
2022-11-04T15:51:08.797Z,27.00
2022-11-04T15:53:40.492Z,25.90
2022-11-04T15:56:08.990Z,24.90
2022-11-04T15:58:36.959Z,24.10
2022-11-04T16:01:04.999Z,23.40
2022-11-04T16:03:32.804Z,22.90
2022-11-04T16:06:04.159Z,22.40
2022-11-04T16:08:32.672Z,22.10
2022-11-04T16:11:16.035Z,21.70
2022-11-04T16:13:44.995Z,21.40
2022-11-04T16:16:23.049Z,21.10
2022-11-04T16:18:59.142Z,20.80
2022-11-04T16:21:33.642Z,20.50
2022-11-04T16:24:04.982Z,20.20
2022-11-04T16:26:38.905Z,20.10
2022-11-04T16:29:12.811Z,19.80
2022-11-04T16:31:42.304Z,19.60
2022-11-04T16:34:13.270Z,19.50
2022-11-04T16:36:40.812Z,19.30
2022-11-04T16:39:09.304Z,19.20
2022-11-04T16:41:39.529Z,19.10
2022-11-04T16:44:11.511Z,18.90
2022-11-04T16:46:40.948Z,18.80
2022-11-04T16:49:10.883Z,18.70
2022-11-04T16:51:38.453Z,18.60
2022-11-04T16:54:06.017Z,18.50
2022-11-04T16:56:34.361Z,18.40
2022-11-04T16:59:01.982Z,18.40
2022-11-04T17:01:29.836Z,18.30
2022-11-04T17:03:57.556Z,18.30
2022-11-04T17:06:25.724Z,18.20
2022-11-04T17:08:56.342Z,18.10
2022-11-04T17:11:24.437Z,18.00
2022-11-04T17:13:52.150Z,18.00
2022-11-04T17:16:28.531Z,17.90
2022-11-04T17:18:53.686Z,17.80
2022-11-04T17:21:23.327Z,17.70
2022-11-04T17:23:54.110Z,17.70
2022-11-04T17:26:21.906Z,17.70
2022-11-04T17:28:50.108Z,17.70
2022-11-04T17:31:19.923Z,17.60
2022-11-04T17:33:48.218Z,17.60
2022-11-04T17:36:18.746Z,17.50
2022-11-04T17:38:47.449Z,17.50
2022-11-04T17:41:36.067Z,17.40
2022-11-04T17:44:05.273Z,17.40
2022-11-04T17:46:34.680Z,17.30
2022-11-04T17:49:06.463Z,17.30
2022-11-04T17:51:34.259Z,17.30
2022-11-04T17:54:02.141Z,17.20
2022-11-04T17:56:29.806Z,17.20
2022-11-04T17:59:01.520Z,17.20
2022-11-04T18:01:29.089Z,17.10
2022-11-04T18:03:56.758Z,17.10
2022-11-04T18:06:25.724Z,17.00
2022-11-04T18:08:54.746Z,17.00
2022-11-04T18:11:42.915Z,16.90
2022-11-04T18:14:16.613Z,16.90
2022-11-04T18:16:45.287Z,16.90
2022-11-04T18:19:14.145Z,16.90
2022-11-04T18:21:41.669Z,16.90
2022-11-04T18:24:09.825Z,16.90
2022-11-04T18:26:37.718Z,16.80
2022-11-04T18:29:08.377Z,16.80
2022-11-04T18:31:38.532Z,16.70
2022-11-04T18:34:09.661Z,16.70
2022-11-04T18:36:39.848Z,16.70
2022-11-04T18:39:09.743Z,16.60
2022-11-04T18:41:39.088Z,16.50
2022-11-04T18:44:18.841Z,16.50
2022-11-04T18:46:47.066Z,16.50
2022-11-04T18:49:16.316Z,16.50
2022-11-04T18:51:44.799Z,16.50
2022-11-04T18:54:13.146Z,16.50
2022-11-04T18:56:42.753Z,16.60
2022-11-04T18:59:15.985Z,16.60
2022-11-04T19:01:44.316Z,16.60
2022-11-04T19:04:14.189Z,16.60
2022-11-04T19:06:44.380Z,16.60
2022-11-04T19:11:45.151Z,16.60
2022-11-04T19:14:15.904Z,16.60
2022-11-04T19:16:43.751Z,16.60
2022-11-04T19:19:16.470Z,16.70
2022-11-04T19:21:44.072Z,16.70
2022-11-04T19:24:12.657Z,16.70
2022-11-04T19:26:41.193Z,16.70
2022-11-04T19:29:09.080Z,16.60
2022-11-04T19:31:36.756Z,16.70
2022-11-04T19:34:05.202Z,16.60
2022-11-04T19:36:33.958Z,16.60
2022-11-04T19:39:01.567Z,16.60
2022-11-04T19:41:47.712Z,16.60
2022-11-04T19:44:18.821Z,16.70
2022-11-04T19:46:47.195Z,16.60
2022-11-04T19:49:15.709Z,16.60
2022-11-04T19:51:44.445Z,16.50
2022-11-04T19:54:12.832Z,16.50
2022-11-04T19:56:40.696Z,16.50
2022-11-04T19:59:09.294Z,16.50
2022-11-04T20:01:37.245Z,16.50
2022-11-04T20:04:05.463Z,16.40
2022-11-04T20:06:36.351Z,16.30
2022-11-04T20:09:07.095Z,16.30
2022-11-04T20:11:38.662Z,16.20
2022-11-04T20:14:08.127Z,16.10
2022-11-04T20:16:47.050Z,16.20
2022-11-04T20:19:19.869Z,16.10
2022-11-04T20:21:45.014Z,16.00
2022-11-04T20:24:13.734Z,15.90
2022-11-04T20:26:44.301Z,15.90
2022-11-04T20:29:12.613Z,15.80
2022-11-04T20:31:41.468Z,15.80
2022-11-04T20:34:11.672Z,15.80
2022-11-04T20:36:40.380Z,15.70
2022-11-04T20:39:17.696Z,15.70
2022-11-04T20:41:46.361Z,15.70
2022-11-04T20:44:16.647Z,15.70
2022-11-04T20:46:46.271Z,15.70
2022-11-04T20:49:17.774Z,15.60
2022-11-04T20:51:53.349Z,15.60
2022-11-04T20:54:17.823Z,15.60
2022-11-04T20:56:55.252Z,15.60
2022-11-04T20:59:25.981Z,15.60
2022-11-04T21:01:54.048Z,15.50
2022-11-04T21:04:22.125Z,15.50
2022-11-04T21:06:51.361Z,15.50
2022-11-04T21:09:21.374Z,15.50
2022-11-04T21:11:50.480Z,15.50
2022-11-04T21:14:19.855Z,15.40
2022-11-04T21:16:48.210Z,15.50
2022-11-04T21:19:16.266Z,15.40
2022-11-04T21:21:44.833Z,15.40
2022-11-04T21:24:14.235Z,15.40
2022-11-04T21:26:42.470Z,15.30
2022-11-04T21:29:13.892Z,15.30
2022-11-04T21:31:43.949Z,15.20
2022-11-04T21:34:11.743Z,15.20
2022-11-04T21:36:40.203Z,15.20
2022-11-04T21:39:11.206Z,15.20
2022-11-04T21:41:39.888Z,15.20
2022-11-04T21:44:10.688Z,15.20
2022-11-04T21:46:38.841Z,15.20
2022-11-04T21:49:09.825Z,15.10
2022-11-04T21:51:37.630Z,15.10
2022-11-04T21:54:07.267Z,15.10
2022-11-04T21:56:35.775Z,15.10
2022-11-04T21:59:04.225Z,15.10
2022-11-04T22:01:32.853Z,15.10
2022-11-04T22:04:01.977Z,15.10
2022-11-04T22:06:35.248Z,15.10
2022-11-04T22:09:05.282Z,15.00
2022-11-04T22:11:37.512Z,15.00
2022-11-04T22:14:08.794Z,15.00
2022-11-04T22:16:38.836Z,15.00
2022-11-04T22:19:09.009Z,14.90
2022-11-04T22:21:40.434Z,14.90
2022-11-04T22:24:11.416Z,14.90
2022-11-04T22:26:40.035Z,14.80
2022-11-04T22:29:07.510Z,14.80
2022-11-04T22:31:38.033Z,14.80
2022-11-04T22:34:06.230Z,14.80
2022-11-04T22:36:34.557Z,14.70
2022-11-04T22:39:03.704Z,14.70
2022-11-04T22:41:33.507Z,14.70
2022-11-04T22:44:01.230Z,14.80
2022-11-04T22:46:31.835Z,14.80
2022-11-04T22:49:02.424Z,14.80
2022-11-04T22:51:32.748Z,14.70
2022-11-04T22:54:07.558Z,14.70
2022-11-04T22:56:32.831Z,14.70
2022-11-04T22:59:02.501Z,14.70
2022-11-04T23:01:32.006Z,14.70
2022-11-04T23:04:00.340Z,14.70
2022-11-04T23:06:27.746Z,14.70
2022-11-04T23:09:00.043Z,14.70
2022-11-04T23:11:45.826Z,14.70
2022-11-04T23:14:32.980Z,14.60
2022-11-04T23:17:19.006Z,14.60
2022-11-04T23:19:46.713Z,14.60
2022-11-04T23:22:32.952Z,14.60
2022-11-04T23:25:06.253Z,14.60
2022-11-04T23:27:54.985Z,14.60
2022-11-04T23:30:24.182Z,14.60
2022-11-04T23:32:54.366Z,14.60
2022-11-04T23:35:55.103Z,14.50
2022-11-04T23:38:24.294Z,14.50
2022-11-04T23:41:12.952Z,14.50
2022-11-04T23:43:40.659Z,14.50
2022-11-04T23:46:30.190Z,14.50
2022-11-04T23:49:14.793Z,14.50
2022-11-04T23:52:00.726Z,14.40
2022-11-04T23:54:46.844Z,14.40
2022-11-04T23:57:37.276Z,14.40
